Time;durP1;ratioP1;P1;durP2;ratioP2;P2;SDS_P1;SDS_P2;PMS_P1;PMS_P2;Temp;Humidity;BMP_temperature;BMP_pressure;BME280_temperature;BME280_humidity;BME280_pressure;Samples;Min_cycle;Max_cycle;Signal;HPM_P1;HPM_P2
2021/07/28 00:00:51;;;;;;;;;5.00;5.00;;;;;20.02;70.89;100840.59;5018348;28;45375;-83
2021/07/28 00:03:16;;;;;;;;;5.00;5.00;;;;;20.05;70.94;100847.63;5017100;28;45331;-83
2021/07/28 00:05:42;;;;;;;;;8.50;6.00;;;;;20.02;70.48;100848.50;5018201;28;45339;-82
2021/07/28 00:08:07;;;;;;;;;5.00;4.00;;;;;19.97;70.71;100844.94;5018100;28;45394;-82
2021/07/28 00:10:33;;;;;;;;;4.75;3.00;;;;;19.92;71.22;100847.53;5018417;28;45616;-83
2021/07/28 00:12:59;;;;;;;;;4.50;4.00;;;;;19.90;71.28;100845.78;5017872;28;45500;-83
2021/07/28 00:15:24;;;;;;;;;6.00;4.50;;;;;19.85;71.43;100844.81;5018218;28;45403;-83
2021/07/28 00:17:53;;;;;;;;;6.00;6.00;;;;;19.82;70.84;100855.28;5016599;28;45466;-83
2021/07/28 00:25:35;;;;;;;;;5.00;4.00;;;;;19.71;71.35;100849.97;5017678;28;45331;-83
2021/07/28 00:28:01;;;;;;;;;4.75;4.75;;;;;19.67;71.22;100843.81;5016638;28;45288;-83
2021/07/28 00:30:27;;;;;;;;;7.50;5.00;;;;;19.64;71.04;100839.44;5018147;28;45514;-83
2021/07/28 00:32:52;;;;;;;;;5.25;4.25;;;;;19.63;71.19;100842.03;5017443;28;45287;-83
2021/07/28 00:35:18;;;;;;;;;5.00;5.00;;;;;19.60;71.06;100832.38;5018034;28;45281;-82
2021/07/28 00:37:45;;;;;;;;;5.00;4.25;;;;;19.56;70.72;100835.84;5018420;28;45247;-82
2021/07/28 00:40:14;;;;;;;;;4.00;3.25;;;;;19.54;70.78;100837.59;5018134;28;45528;-82
2021/07/28 00:42:39;;;;;;;;;3.25;3.25;;;;;19.51;71.25;100834.03;5017704;28;45376;-83
2021/07/28 00:45:05;;;;;;;;;6.00;5.00;;;;;19.49;70.86;100834.03;5016058;28;45395;-82
2021/07/28 00:47:31;;;;;;;;;4.25;4.25;;;;;19.45;70.72;100841.03;5017732;28;45367;-83
2021/07/28 00:49:56;;;;;;;;;3.00;3.00;;;;;19.45;70.49;100833.16;5017777;28;45265;-83
2021/07/28 00:52:22;;;;;;;;;6.00;4.50;;;;;19.43;70.91;100827.00;5017559;28;46033;-83
2021/07/28 00:54:49;;;;;;;;;2.00;2.00;;;;;19.45;70.49;100834.88;5017802;28;45446;-82
2021/07/28 00:57:14;;;;;;;;;3.00;3.00;;;;;19.46;70.86;100832.28;5017667;28;45281;-82
2021/07/28 00:59:40;;;;;;;;;5.50;4.50;;;;;19.50;70.83;100835.81;5017689;28;45305;-82
2021/07/28 01:02:06;;;;;;;;;6.75;5.75;;;;;19.49;70.50;100844.56;5015746;28;46099;-83
2021/07/28 01:04:31;;;;;;;;;5.50;4.50;;;;;19.48;70.36;100835.81;5017300;28;45257;-83
2021/07/28 01:06:59;;;;;;;;;4.00;3.00;;;;;19.48;70.30;100841.06;5017166;28;45407;-83
2021/07/28 01:09:28;;;;;;;;;6.00;5.00;;;;;19.49;70.68;100845.41;5017591;28;45335;-83
2021/07/28 01:11:56;;;;;;;;;3.50;3.00;;;;;19.48;70.46;100850.66;5016907;28;45629;-82
2021/07/28 01:14:22;;;;;;;;;5.75;5.00;;;;;19.44;70.17;100839.25;5015821;28;45363;-83
2021/07/28 01:16:48;;;;;;;;;3.00;2.75;;;;;19.42;70.15;100842.75;5017822;28;45419;-82
2021/07/28 01:19:19;;;;;;;;;7.00;4.00;;;;;19.41;70.05;100839.22;5017686;28;45375;-83
2021/07/28 01:21:45;;;;;;;;;4.00;4.00;;;;;19.39;69.90;100846.19;5017278;28;45385;-82
2021/07/28 01:24:12;;;;;;;;;5.00;4.00;;;;;19.39;70.46;100846.19;5016753;28;45660;-82
2021/07/28 01:26:38;;;;;;;;;3.00;3.00;;;;;19.38;69.59;100841.84;5017082;28;45435;-82
2021/07/28 01:29:05;;;;;;;;;4.00;4.00;;;;;19.37;69.79;100849.69;5017069;28;45284;-82
2021/07/28 01:31:39;;;;;;;;;5.00;3.75;;;;;19.35;70.17;100849.69;5016722;28;45505;-82
2021/07/28 01:34:06;;;;;;;;;5.75;3.75;;;;;19.31;70.20;100840.00;5016804;28;45784;-82
2021/07/28 01:36:33;;;;;;;;;2.75;2.75;;;;;19.32;70.23;100844.41;5016905;28;45347;-83
2021/07/28 01:38:59;;;;;;;;;4.25;3.50;;;;;19.31;70.03;100847.88;5016891;28;45482;-83
2021/07/28 01:41:26;;;;;;;;;1.00;1.00;;;;;19.30;70.03;100846.13;5015501;28;45704;-83
2021/07/28 01:43:51;;;;;;;;;5.75;4.75;;;;;19.27;69.67;100848.75;5016507;28;45510;-82
2021/07/28 01:46:18;;;;;;;;;5.25;3.25;;;;;19.25;70.39;100855.72;5017310;28;45471;-82
2021/07/28 01:48:44;;;;;;;;;3.00;3.00;;;;;19.21;69.62;100853.91;5017258;28;45581;-83
2021/07/28 01:51:09;;;;;;;;;2.00;2.00;;;;;19.17;70.38;100843.38;5016595;28;45327;-82
2021/07/28 01:53:36;;;;;;;;;2.50;2.50;;;;;19.19;69.58;100856.53;5016483;28;45574;-82
2021/07/28 01:56:02;;;;;;;;;2.00;2.00;;;;;19.20;69.82;100846.91;5016259;28;45367;-83
2021/07/28 01:58:27;;;;;;;;;5.00;3.00;;;;;19.16;69.46;100846.91;5016782;28;45272;-83
2021/07/28 02:00:53;;;;;;;;;3.00;3.00;;;;;19.16;68.94;100854.78;5016101;28;45563;-83
2021/07/28 02:03:18;;;;;;;;;3.50;2.50;;;;;19.16;69.02;100857.41;5016643;28;45514;-83
2021/07/28 02:05:44;;;;;;;;;5.00;3.25;;;;;19.16;69.51;100853.88;5016824;28;45311;-82
2021/07/28 02:08:13;;;;;;;;;2.00;2.00;;;;;19.15;69.39;100852.09;5016446;28;45621;-83
2021/07/28 02:10:44;;;;;;;;;2.00;2.00;;;;;19.17;68.85;100855.63;5016319;28;45387;-83
2021/07/28 02:13:10;;;;;;;;;4.50;4.00;;;;;19.15;68.89;100860.88;5016252;28;45719;-83
2021/07/28 02:15:35;;;;;;;;;4.75;3.00;;;;;19.14;69.12;100858.22;5016320;28;45328;-82
2021/07/28 02:18:03;;;;;;;;;3.00;3.00;;;;;19.16;69.24;100857.41;5017124;28;45313;-83
2021/07/28 02:20:29;;;;;;;;;3.00;3.00;;;;;19.17;68.71;100864.38;5017552;28;46076;-83
2021/07/28 02:22:55;;;;;;;;;3.50;3.50;;;;;19.16;69.08;100854.78;5016025;28;45819;-82
2021/07/28 02:25:21;;;;;;;;;4.25;3.00;;;;;19.16;69.51;100862.66;5015096;28;45240;-82
2021/07/28 02:27:47;;;;;;;;;3.00;3.00;;;;;19.17;69.46;100855.63;5016778;28;45657;-82
2021/07/28 02:30:16;;;;;;;;;3.75;3.50;;;;;19.17;68.62;100858.25;5015688;28;45233;-82
2021/07/28 02:32:42;;;;;;;;;4.00;2.75;;;;;19.15;68.77;100853.00;5016067;28;45507;-82
2021/07/28 02:35:08;;;;;;;;;5.50;4.00;;;;;19.13;68.17;100852.09;5016008;28;45352;-83
2021/07/28 02:37:35;;;;;;;;;3.00;2.25;;;;;19.08;68.55;100851.16;5016537;28;45375;-83
2021/07/28 02:40:02;;;;;;;;;4.75;2.75;;;;;19.06;68.50;100847.63;5015622;28;45251;-83
2021/07/28 02:42:28;;;;;;;;;2.25;2.25;;;;;19.07;68.74;100861.66;5016041;28;45264;-83
2021/07/28 02:44:53;;;;;;;;;4.00;2.75;;;;;19.06;68.41;100866.00;5015666;28;45388;-83
2021/07/28 02:47:19;;;;;;;;;4.00;2.00;;;;;19.02;68.40;100864.22;5016455;28;45266;-82
2021/07/28 02:49:44;;;;;;;;;2.50;2.50;;;;;19.00;67.94;100858.09;5016158;28;45868;-83
2021/07/28 02:52:10;;;;;;;;;2.25;2.00;;;;;18.97;68.22;100858.94;5018221;28;45442;-83
2021/07/28 02:54:36;;;;;;;;;2.00;2.00;;;;;18.96;68.20;100858.91;5019495;28;45462;-83
2021/07/28 02:57:02;;;;;;;;;3.00;2.75;;;;;18.92;68.47;100855.34;5019285;28;45323;-83
2021/07/28 02:59:27;;;;;;;;;4.00;3.25;;;;;18.92;68.03;100865.81;5019076;28;46396;-83
2021/07/28 03:01:53;;;;;;;;;2.25;2.00;;;;;18.90;68.25;100864.94;5019141;28;45443;-83
2021/07/28 03:04:19;;;;;;;;;3.00;2.00;;;;;18.89;68.00;100865.81;5019683;28;45419;-83
2021/07/28 03:06:45;;;;;;;;;4.50;3.00;;;;;18.85;67.43;100869.25;5019797;28;45514;-83
2021/07/28 03:09:11;;;;;;;;;1.75;1.75;;;;;18.81;67.84;100870.06;5018890;28;45212;-82
2021/07/28 03:11:37;;;;;;;;;2.75;2.00;;;;;18.79;67.66;100870.06;5019055;28;45246;-82
2021/07/28 03:14:03;;;;;;;;;2.00;2.00;;;;;18.79;68.01;100880.56;5018876;28;45236;-82
2021/07/28 03:16:28;;;;;;;;;3.00;2.25;;;;;18.77;68.24;100871.78;5019318;28;45221;-82
2021/07/28 03:18:54;;;;;;;;;2.00;2.00;;;;;18.77;67.75;100878.78;5017308;28;47720;-82
2021/07/28 03:21:20;;;;;;;;;3.00;2.00;;;;;18.77;67.86;100881.41;5017512;28;45367;-82
2021/07/28 03:23:45;;;;;;;;;2.50;2.50;;;;;18.78;67.76;100883.16;5019330;28;45446;-82
2021/07/28 03:26:11;;;;;;;;;2.25;1.75;;;;;18.78;68.04;100880.56;5017910;28;45388;-82
2021/07/28 03:28:36;;;;;;;;;3.25;3.00;;;;;18.78;68.25;100873.53;5018662;28;46050;-82
2021/07/28 03:31:02;;;;;;;;;5.25;2.00;;;;;18.78;68.32;100876.16;5018498;28;45559;-82
2021/07/28 03:33:28;;;;;;;;;2.75;2.75;;;;;18.77;67.80;100874.41;5018820;28;45352;-83
2021/07/28 03:35:53;;;;;;;;;3.00;3.00;;;;;18.76;67.55;100877.88;5018869;28;45629;-83
2021/07/28 03:38:19;;;;;;;;;3.00;3.00;;;;;18.75;67.63;100878.75;5018889;28;45945;-83
2021/07/28 03:40:45;;;;;;;;;2.00;1.00;;;;;18.74;67.88;100882.22;5018989;28;45349;-82
2021/07/28 03:43:10;;;;;;;;;4.50;3.50;;;;;18.74;67.34;100882.22;5018376;28;45367;-83
2021/07/28 03:45:36;;;;;;;;;4.00;2.00;;;;;18.69;68.00;100889.19;5018972;28;45292;-82
2021/07/28 03:48:02;;;;;;;;;3.50;3.00;;;;;18.67;67.30;100873.44;5018232;28;46578;-83
2021/07/28 03:50:28;;;;;;;;;3.50;2.00;;;;;18.65;67.35;100887.38;5018388;28;45824;-83
2021/07/28 03:52:58;;;;;;;;;4.00;3.00;;;;;18.63;67.38;100879.50;5018374;28;45380;-83
2021/07/28 03:55:24;;;;;;;;;3.00;3.00;;;;;18.60;66.97;100882.06;5018824;28;45438;-83
2021/07/28 03:57:50;;;;;;;;;5.00;3.75;;;;;18.60;67.06;100881.19;5016547;28;45802;-82
2021/07/28 04:00:16;;;;;;;;;2.50;2.25;;;;;18.59;67.19;100882.91;5019417;28;45347;-82
2021/07/28 04:02:41;;;;;;;;;3.75;2.50;;;;;18.59;67.35;100884.69;5018774;28;45292;-82
2021/07/28 04:05:07;;;;;;;;;2.00;2.00;;;;;18.60;66.97;100889.94;5017097;28;45353;-83
2021/07/28 04:07:33;;;;;;;;;1.75;1.75;;;;;18.60;66.68;100889.94;5020849;28;45276;-83
2021/07/28 04:09:58;;;;;;;;;2.00;2.00;;;;;18.64;66.74;100893.47;5017989;28;45229;-83
2021/07/28 04:12:24;;;;;;;;;3.00;1.50;;;;;18.65;66.41;100895.22;5018532;28;45972;-83
2021/07/28 04:14:50;;;;;;;;;1.00;1.00;;;;;18.62;66.41;100893.47;5018243;28;45198;-83
2021/07/28 04:17:15;;;;;;;;;1.00;1.00;;;;;18.62;66.25;100898.69;5018398;28;45906;-83
2021/07/28 04:19:43;;;;;;;;;2.00;2.00;;;;;18.62;66.40;100903.94;5017998;28;45455;-84
2021/07/28 04:22:09;;;;;;;;;4.00;4.00;;;;;18.60;65.79;100899.56;5017761;28;45451;-82
2021/07/28 04:24:35;;;;;;;;;2.75;2.00;;;;;18.60;66.39;100904.78;5018399;28;45341;-82
2021/07/28 04:27:00;;;;;;;;;3.50;2.00;;;;;18.61;66.22;100907.44;5016202;28;46960;-82
2021/07/28 04:29:26;;;;;;;;;2.50;2.00;;;;;18.60;65.53;100902.16;5017927;28;45185;-82
2021/07/28 04:31:52;;;;;;;;;4.00;3.00;;;;;18.62;65.66;100909.19;5017834;28;45596;-82
2021/07/28 04:34:17;;;;;;;;;3.00;3.00;;;;;18.64;65.42;100914.44;5019180;28;45230;-84
2021/07/28 04:36:43;;;;;;;;;2.75;2.25;;;;;18.64;65.07;100906.56;5018376;28;46004;-84
2021/07/28 04:39:08;;;;;;;;;3.50;2.00;;;;;18.65;65.32;100917.09;5017466;28;45348;-84
2021/07/28 04:41:34;;;;;;;;;2.25;2.25;;;;;18.67;65.23;100911.88;5017822;28;45463;-84
2021/07/28 04:43:59;;;;;;;;;4.00;2.75;;;;;18.68;64.62;100917.13;5016703;28;45863;-84
2021/07/28 04:46:25;;;;;;;;;2.50;2.00;;;;;18.68;64.91;100916.25;5017480;28;45253;-84
2021/07/28 04:48:50;;;;;;;;;2.50;2.50;;;;;18.70;65.00;100907.53;5017314;28;45399;-84
2021/07/28 04:51:16;;;;;;;;;7.50;2.25;;;;;18.70;64.66;100912.78;5017972;28;45426;-84
2021/07/28 04:53:42;;;;;;;;;3.00;3.00;;;;;18.67;64.68;100910.16;5017748;28;45963;-84
2021/07/28 04:56:07;;;;;;;;;2.75;2.50;;;;;18.65;64.48;100904.00;5015572;28;46522;-84
2021/07/28 04:58:33;;;;;;;;;3.00;2.75;;;;;18.68;64.43;100911.00;5017291;28;45458;-82
2021/07/28 05:00:58;;;;;;;;;5.00;2.50;;;;;18.68;64.20;100914.50;5016004;28;45414;-84
2021/07/28 05:03:24;;;;;;;;;3.00;2.50;;;;;18.69;64.86;100913.66;5018812;28;45499;-84
2021/07/28 05:05:50;;;;;;;;;3.75;2.25;;;;;18.71;64.35;100911.06;5018032;28;45980;-84
2021/07/28 05:08:16;;;;;;;;;3.00;2.00;;;;;18.71;64.19;100917.19;5017763;28;45610;-84
2021/07/28 05:10:41;;;;;;;;;3.00;1.75;;;;;18.72;64.39;100916.31;5017434;28;45409;-82
2021/07/28 05:13:07;;;;;;;;;3.00;2.00;;;;;18.74;64.77;100918.09;5017223;28;45227;-82
2021/07/28 05:15:33;;;;;;;;;4.25;2.00;;;;;18.75;64.57;100925.97;5019798;28;46087;-84
2021/07/28 05:17:58;;;;;;;;;2.00;2.00;;;;;18.74;63.96;100918.09;5016865;28;45363;-84
2021/07/28 05:20:24;;;;;;;;;1.00;1.00;;;;;18.73;64.08;100922.47;5013895;28;45366;-84
2021/07/28 05:22:51;;;;;;;;;2.00;2.00;;;;;18.74;63.99;100924.19;5006870;28;45337;-84
2021/07/28 05:25:17;;;;;;;;;2.50;2.50;;;;;18.73;63.87;100938.19;5007572;28;46149;-84
2021/07/28 05:27:43;;;;;;;;;1.75;1.75;;;;;18.70;63.73;100931.16;5013181;28;45701;-83
2021/07/28 05:30:09;;;;;;;;;2.00;2.00;;;;;18.70;63.50;100930.28;5008604;28;45383;-84
2021/07/28 05:32:35;;;;;;;;;1.75;1.75;;;;;18.71;64.11;100932.91;5006350;28;45450;-84
2021/07/28 05:35:01;;;;;;;;;1.50;1.50;;;;;18.70;63.92;100922.41;5007864;28;46270;-84
2021/07/28 05:37:28;;;;;;;;;4.25;2.00;;;;;18.72;63.95;100929.44;5008145;28;46224;-84
2021/07/28 05:39:54;;;;;;;;;3.00;3.00;;;;;18.76;63.58;100929.47;5008436;28;45474;-84
2021/07/28 05:42:20;;;;;;;;;3.75;1.75;;;;;18.72;63.49;100924.19;5009194;28;45430;-84
2021/07/28 05:44:46;;;;;;;;;2.00;2.00;;;;;18.72;63.41;100932.06;5005131;28;45485;-84
2021/07/28 05:47:12;;;;;;;;;3.00;3.00;;;;;18.74;63.53;100928.56;5006199;28;45447;-82
2021/07/28 05:49:37;;;;;;;;;3.00;2.50;;;;;18.75;63.76;100925.97;5003785;28;45411;-82
2021/07/28 05:52:03;;;;;;;;;1.25;1.00;;;;;18.78;63.73;100935.63;4995867;28;45401;-82
2021/07/28 05:54:29;;;;;;;;;3.75;2.00;;;;;18.75;63.61;100939.06;4999865;28;45963;-91
2021/07/28 05:56:55;;;;;;;;;3.75;3.00;;;;;18.72;63.85;100933.81;5003716;28;45341;-90
2021/07/28 05:59:21;;;;;;;;;2.75;2.75;;;;;18.70;63.56;100943.38;5004936;28;45565;-88
2021/07/28 06:01:47;;;;;;;;;4.75;2.25;;;;;18.61;63.61;100940.66;5011060;28;46549;-88
2021/07/28 06:04:12;;;;;;;;;2.75;2.25;;;;;18.57;63.81;100939.72;5021066;28;45371;-88
2021/07/28 06:06:38;;;;;;;;;1.00;1.00;;;;;18.54;64.12;100934.44;5020198;28;45349;-89
2021/07/28 06:09:03;;;;;;;;;2.25;1.75;;;;;18.59;64.05;100945.00;5016076;28;45450;-84
2021/07/28 06:11:29;;;;;;;;;2.25;2.00;;;;;18.59;64.36;100943.22;5029553;28;45205;-85
2021/07/28 06:13:55;;;;;;;;;4.75;3.75;;;;;18.62;64.51;100945.03;5019953;28;46053;-84
2021/07/28 06:16:20;;;;;;;;;2.00;2.00;;;;;18.59;64.07;100942.38;5018709;28;45194;-84
2021/07/28 06:18:46;;;;;;;;;2.00;2.00;;;;;18.63;63.96;100954.63;5017483;28;45363;-84
2021/07/28 06:21:11;;;;;;;;;3.00;1.75;;;;;18.67;63.87;100956.44;5015362;28;45649;-87
2021/07/28 06:23:37;;;;;;;;;2.00;2.00;;;;;18.67;63.78;100954.72;5017512;28;46111;-86
2021/07/28 06:26:02;;;;;;;;;1.25;1.25;;;;;18.69;63.55;100954.75;5006931;28;45512;-90
2021/07/28 06:28:28;;;;;;;;;2.75;2.75;;;;;18.77;63.05;100953.09;5007694;28;45287;-87
2021/07/28 06:30:54;;;;;;;;;2.00;2.00;;;;;18.84;63.44;100959.31;5010707;28;45658;-89
2021/07/28 06:33:21;;;;;;;;;5.50;3.50;;;;;18.92;63.37;100962.91;5002082;28;46193;-82
2021/07/28 06:35:50;;;;;;;;;4.00;4.00;;;;;18.98;63.37;100957.78;5004502;28;45356;-92
2021/07/28 06:38:16;;;;;;;;;3.50;3.00;;;;;19.03;63.52;100958.69;5019516;28;45398;-87
2021/07/28 06:40:43;;;;;;;;;3.00;2.50;;;;;19.05;62.80;100958.75;5002027;28;45466;-86
2021/07/28 06:43:09;;;;;;;;;3.00;3.00;;;;;19.04;63.11;100970.09;5002910;28;45422;-93
2021/07/28 06:45:35;;;;;;;;;4.00;3.25;;;;;18.99;62.60;100966.53;5019263;28;45402;-83
2021/07/28 06:48:00;;;;;;;;;4.00;2.75;;;;;19.00;63.14;100970.91;5016819;28;45220;-91
2021/07/28 06:50:26;;;;;;;;;1.75;1.75;;;;;19.05;63.34;100969.25;5000292;28;45231;-90
2021/07/28 06:52:52;;;;;;;;;3.00;2.00;;;;;19.10;62.84;100978.03;4998413;28;45370;-91
2021/07/28 06:55:17;;;;;;;;;3.00;2.00;;;;;19.05;62.91;100965.72;4997686;28;45278;-92
2021/07/28 06:57:43;;;;;;;;;3.75;3.75;;;;;19.03;63.04;100974.44;5003990;28;45311;-81
2021/07/28 07:00:09;;;;;;;;;4.25;3.00;;;;;19.03;63.05;100973.59;4998891;28;45498;-85
2021/07/28 07:02:35;;;;;;;;;2.25;2.25;;;;;19.03;62.72;100968.34;4994967;28;47734;-89
2021/07/28 07:05:01;;;;;;;;;3.25;2.25;;;;;19.09;62.97;100970.16;5005188;28;45830;-83
2021/07/28 07:07:27;;;;;;;;;2.25;2.25;;;;;19.14;62.68;100973.69;4996071;28;45394;-82
2021/07/28 07:09:52;;;;;;;;;3.00;2.50;;;;;19.14;62.06;100977.22;4996278;28;45414;-85
2021/07/28 07:12:19;;;;;;;;;3.00;3.00;;;;;19.16;61.91;100970.25;4997057;28;45273;-85
2021/07/28 07:14:45;;;;;;;;;6.25;3.50;;;;;19.17;61.70;100979.00;4996095;28;45771;-84
2021/07/28 07:17:11;;;;;;;;;5.75;2.75;;;;;19.16;61.61;100974.59;5009389;28;45225;-83
2021/07/28 07:19:37;;;;;;;;;4.75;3.00;;;;;19.16;61.94;100980.75;5015694;28;45517;-80
2021/07/28 07:22:03;;;;;;;;;4.75;3.00;;;;;19.18;61.82;100984.25;5016138;28;45817;-84
2021/07/28 07:24:29;;;;;;;;;3.50;3.00;;;;;19.23;61.80;100983.44;5017271;28;45367;-86
2021/07/28 07:26:54;;;;;;;;;2.50;2.50;;;;;19.29;61.82;100975.63;5026037;28;45628;-86
2021/07/28 07:29:20;;;;;;;;;3.00;2.25;;;;;19.32;61.06;100981.81;5015864;28;45526;-82
2021/07/28 07:31:46;;;;;;;;;2.00;2.00;;;;;19.32;61.29;100980.91;5015598;28;45296;-85
2021/07/28 07:34:12;;;;;;;;;4.25;2.00;;;;;19.33;60.65;100975.66;5015070;28;45367;-88
2021/07/28 07:36:37;;;;;;;;;4.00;2.50;;;;;19.43;60.51;100988.94;5015178;28;45356;-86
2021/07/28 07:39:04;;;;;;;;;3.00;1.75;;;;;19.47;60.46;100975.84;5018723;28;45323;-85
2021/07/28 07:41:31;;;;;;;;;5.75;3.00;;;;;19.48;61.30;100974.97;5018328;28;45408;-82
2021/07/28 07:43:57;;;;;;;;;3.00;1.25;;;;;19.43;60.47;100981.91;5018567;28;45257;-86
2021/07/28 07:46:24;;;;;;;;;4.50;3.00;;;;;19.44;60.75;100985.41;5001784;28;45511;-86
2021/07/28 07:48:50;;;;;;;;;5.00;3.00;;;;;19.47;61.02;100980.19;4999315;28;45754;-79
2021/07/28 07:51:15;;;;;;;;;2.00;2.00;;;;;19.58;60.66;100989.06;4999298;28;46086;-83
2021/07/28 07:53:41;;;;;;;;;3.00;1.75;;;;;19.67;61.16;100984.78;4997899;28;45331;-86
2021/07/28 07:56:07;;;;;;;;;4.00;2.00;;;;;19.76;60.83;100992.78;4999112;28;45355;-84
2021/07/28 07:58:36;;;;;;;;;2.00;2.00;;;;;19.79;60.51;100992.78;5001503;28;45414;-83
2021/07/28 08:01:06;;;;;;;;;3.00;2.75;;;;;19.85;60.57;100990.22;4999505;28;45319;-84
2021/07/28 08:03:31;;;;;;;;;2.75;2.75;;;;;19.89;59.88;100980.66;4999373;28;45891;-84
2021/07/28 08:05:57;;;;;;;;;3.00;1.00;;;;;19.92;59.65;100989.44;5004186;28;45381;-86
2021/07/28 08:08:23;;;;;;;;;1.75;1.75;;;;;19.99;58.79;100987.75;5009277;28;45501;-82
2021/07/28 08:10:48;;;;;;;;;1.00;1.00;;;;;20.01;57.84;100983.38;4999338;28;45382;-82
2021/07/28 08:13:14;;;;;;;;;1.75;1.75;;;;;19.93;57.60;100980.69;4998265;28;45363;-81
2021/07/28 08:15:40;;;;;;;;;2.50;2.50;;;;;19.85;58.05;100976.19;4999264;28;45386;-84
2021/07/28 08:18:06;;;;;;;;;2.00;0.00;;;;;19.74;57.73;100989.25;4998739;28;45487;-85
2021/07/28 08:20:32;;;;;;;;;1.75;1.00;;;;;19.64;57.76;100994.41;4998958;28;45296;-85
2021/07/28 08:22:58;;;;;;;;;1.00;1.00;;;;;19.55;57.79;100982.91;4999053;28;45341;-86
2021/07/28 08:25:24;;;;;;;;;2.75;1.00;;;;;19.49;58.26;100978.47;4998989;28;45218;-86
2021/07/28 08:27:49;;;;;;;;;1.50;1.50;;;;;19.47;57.28;100985.44;5000330;28;45287;-86
2021/07/28 08:30:15;;;;;;;;;1.00;1.00;;;;;19.44;57.64;100986.31;4999206;28;45292;-85
2021/07/28 08:32:42;;;;;;;;;2.00;0.50;;;;;19.45;57.36;100979.28;4999262;28;45487;-85
2021/07/28 08:35:08;;;;;;;;;2.00;2.00;;;;;19.46;57.40;100983.69;4998471;28;45315;-87
2021/07/28 08:37:34;;;;;;;;;2.00;1.00;;;;;19.47;56.79;100977.56;5007378;28;45410;-84
2021/07/28 08:39:59;;;;;;;;;1.75;1.75;;;;;19.53;56.66;100992.50;4998087;28;45970;-82
2021/07/28 08:42:27;;;;;;;;;3.00;1.50;;;;;19.58;56.92;100988.22;5017550;28;45395;-83
2021/07/28 08:44:53;;;;;;;;;1.00;1.00;;;;;19.61;55.88;100985.59;5017834;28;45409;-84
2021/07/28 08:47:19;;;;;;;;;2.00;2.00;;;;;19.62;55.00;100990.88;5019842;28;45499;-87
2021/07/28 08:49:45;;;;;;;;;2.00;1.00;;;;;19.62;55.51;100982.09;5017325;28;46610;-85
2021/07/28 08:52:11;;;;;;;;;4.25;1.75;;;;;19.63;55.46;100987.38;5020783;28;45253;-86
2021/07/28 08:54:37;;;;;;;;;1.25;1.25;;;;;19.65;56.19;100987.41;5019348;28;45423;-87
2021/07/28 08:57:03;;;;;;;;;2.25;1.00;;;;;19.69;56.35;100981.31;5020805;28;45474;-84
2021/07/28 08:59:33;;;;;;;;;1.25;1.25;;;;;19.73;55.99;100982.22;5017605;28;45589;-85
2021/07/28 09:02:00;;;;;;;;;1.75;1.75;;;;;19.89;55.96;100972.78;5017683;28;45284;-88
2021/07/28 09:04:27;;;;;;;;;1.75;1.00;;;;;20.00;55.92;100978.09;5018707;28;45467;-84
2021/07/28 09:06:54;;;;;;;;;2.00;1.50;;;;;20.09;55.44;100978.19;5018184;28;45424;-83
2021/07/28 09:09:20;;;;;;;;;1.00;0.75;;;;;20.18;55.29;100980.00;5026241;28;45283;-78
2021/07/28 09:12:00;;;;;;;;;2.00;1.00;;;;;20.28;55.49;100978.34;5027589;28;45180;-80
2021/07/28 09:14:31;;;;;;;;;1.25;1.25;;;;;20.38;55.11;100977.53;5016083;28;45722;-84
2021/07/28 09:17:19;;;;;;;;;1.00;1.00;;;;;20.53;54.29;100979.38;5016126;28;45373;-83
2021/07/28 09:19:47;;;;;;;;;1.00;1.00;;;;;20.61;53.59;100992.59;5008631;28;47041;-78
2021/07/28 09:22:13;;;;;;;;;4.00;3.00;;;;;20.66;52.77;100975.97;5017368;28;45477;-81
2021/07/28 09:24:41;;;;;;;;;2.25;2.00;;;;;20.67;52.81;100988.25;5001150;28;45478;-79
2021/07/28 09:27:07;;;;;;;;;2.75;1.00;;;;;20.63;52.83;100983.81;4998993;28;45250;-80
2021/07/28 09:29:33;;;;;;;;;1.00;1.00;;;;;20.63;52.71;100990.81;4997956;28;45509;-80
2021/07/28 09:32:05;;;;;;;;;1.25;1.00;;;;;20.67;52.64;100992.63;4997703;28;45265;-81
2021/07/28 09:34:35;;;;;;;;;2.00;1.25;;;;;20.60;52.53;100989.06;5014815;28;45312;-79
2021/07/28 09:37:14;;;;;;;;;2.25;2.00;;;;;20.55;53.08;100990.81;5016820;28;45349;-77
2021/07/28 09:39:50;;;;;;;;;0.50;0.50;;;;;20.57;53.27;100989.06;5015624;28;45432;-78
2021/07/28 09:42:25;;;;;;;;;2.00;2.00;;;;;20.54;53.50;100989.03;4999568;28;45659;-79
2021/07/28 09:44:56;;;;;;;;;1.25;1.25;;;;;20.51;53.02;100991.63;4999913;28;45242;-77
2021/07/28 09:47:26;;;;;;;;;2.25;2.00;;;;;20.49;53.07;100993.38;5014277;28;45599;-79
2021/07/28 09:50:01;;;;;;;;;2.50;2.00;;;;;20.46;53.51;100990.75;5017181;28;45360;-79
2021/07/28 09:52:32;;;;;;;;;2.00;1.75;;;;;20.44;54.00;100987.22;5000618;28;46854;-79
2021/07/28 09:54:59;;;;;;;;;2.00;2.00;;;;;20.45;53.85;101007.38;5007947;28;45475;-79
2021/07/28 09:57:26;;;;;;;;;1.00;1.00;;;;;20.41;53.18;101006.47;5016862;28;45356;-80
2021/07/28 10:00:04;;;;;;;;;5.00;2.75;;;;;20.37;53.40;100978.41;5016103;28;46141;-81
2021/07/28 10:02:32;;;;;;;;;1.25;1.25;;;;;20.36;53.50;100992.41;5029169;28;45644;-79
2021/07/28 10:05:00;;;;;;;;;2.00;1.50;;;;;20.36;53.77;100987.16;5003248;28;45413;-79
2021/07/28 10:07:29;;;;;;;;;4.00;4.00;;;;;20.41;53.61;100998.56;5016620;28;45236;-81
2021/07/28 10:10:05;;;;;;;;;2.75;2.00;;;;;20.39;53.84;100989.81;5015575;28;46257;-77
2021/07/28 10:12:34;;;;;;;;;3.50;1.00;;;;;20.38;53.77;100986.28;5016189;28;45501;-78
2021/07/28 10:15:00;;;;;;;;;2.25;2.25;;;;;20.40;54.18;100997.72;5016199;28;45434;-79
2021/07/28 10:17:26;;;;;;;;;2.75;2.00;;;;;20.41;53.40;101002.09;5015716;28;45434;-78
2021/07/28 10:19:54;;;;;;;;;2.00;2.00;;;;;20.42;53.54;100989.81;5014672;28;46109;-79
2021/07/28 10:22:19;;;;;;;;;3.50;2.00;;;;;20.45;53.66;100995.09;5016514;28;45648;-78
2021/07/28 10:24:46;;;;;;;;;2.25;2.25;;;;;20.52;53.30;100991.63;5016489;28;45949;-80
2021/07/28 10:27:14;;;;;;;;;2.00;2.00;;;;;20.64;53.60;100987.31;5016095;28;45456;-80
2021/07/28 10:29:41;;;;;;;;;4.00;3.00;;;;;20.77;53.95;100997.09;5015831;28;46486;-80
2021/07/28 10:32:07;;;;;;;;;2.00;2.00;;;;;20.83;52.96;100997.13;5007700;28;45699;-82
2021/07/28 10:34:35;;;;;;;;;2.50;2.50;;;;;20.88;52.19;100989.25;5010713;28;45506;-78
2021/07/28 10:37:05;;;;;;;;;3.00;3.00;;;;;20.98;52.61;100971.75;4998502;28;45292;-79
2021/07/28 10:39:47;;;;;;;;;4.25;3.25;;;;;21.09;52.38;100966.53;5010087;28;46159;-82
2021/07/28 10:42:23;;;;;;;;;4.25;3.00;;;;;21.24;52.00;100971.84;5016344;28;45806;-84
2021/07/28 10:45:09;;;;;;;;;3.00;3.00;;;;;21.43;52.14;100969.28;5016805;28;45400;-82
2021/07/28 10:47:45;;;;;;;;;4.00;1.00;;;;;21.57;51.21;100983.34;5015844;28;45419;-79
2021/07/28 10:50:25;;;;;;;;;2.25;2.25;;;;;21.60;50.66;100975.50;5003217;28;46519;-82
2021/07/28 10:52:54;;;;;;;;;3.50;2.00;;;;;21.71;51.06;100979.91;5001125;28;45551;-83
2021/07/28 10:55:20;;;;;;;;;4.00;2.00;;;;;21.80;50.97;100998.34;4999138;28;45442;-85
2021/07/28 10:58:09;;;;;;;;;2.25;2.00;;;;;21.89;49.70;100976.41;5017070;28;45301;-80
2021/07/28 11:00:37;;;;;;;;;1.00;1.00;;;;;22.01;48.56;100979.03;5015500;28;45392;-82
2021/07/28 11:03:06;;;;;;;;;2.50;2.50;;;;;22.05;47.09;100987.84;5002679;28;45442;-82
2021/07/28 11:05:39;;;;;;;;;1.50;1.00;;;;;22.13;46.81;100974.66;5015570;28;45368;-82
2021/07/28 11:08:05;;;;;;;;;1.25;1.25;;;;;22.21;45.69;100983.44;5014897;28;45359;-82
2021/07/28 11:10:31;;;;;;;;;2.25;2.00;;;;;22.23;45.50;100977.25;5015310;28;45655;-82
2021/07/28 11:12:58;;;;;;;;;1.00;1.00;;;;;22.22;45.90;100987.81;5016613;28;45587;-84
2021/07/28 11:15:25;;;;;;;;;4.50;2.00;;;;;22.16;45.48;100987.81;4999082;28;45454;-81
2021/07/28 11:17:55;;;;;;;;;0.00;0.00;;;;;22.15;45.64;100994.84;4999215;28;45328;-82
2021/07/28 11:20:40;;;;;;;;;1.75;1.00;;;;;22.21;44.48;100999.25;5001299;28;45490;-82
2021/07/28 11:23:21;;;;;;;;;1.00;1.00;;;;;22.31;44.24;101008.03;5017748;28;45454;-83
2021/07/28 11:25:50;;;;;;;;;1.00;1.00;;;;;22.36;44.32;101007.13;5019579;28;45765;-83
2021/07/28 11:28:19;;;;;;;;;2.50;2.00;;;;;22.37;44.79;100994.84;5019544;28;45456;-82